Time;durP1;ratioP1;P1;durP2;ratioP2;P2;SDS_P1;SDS_P2;PMS_P1;PMS_P2;Temp;Humidity;BMP_temperature;BMP_pressure;BME280_temperature;BME280_humidity;BME280_pressure;Samples;Min_cycle;Max_cycle;Signal;HPM_P1;HPM_P2
2022/12/29 00:00:23;;;;;;;5.00;2.70;;;;;;;0.23;74.67;100598.31;10503005;28;20053;-81
2022/12/29 00:05:25;;;;;;;4.50;2.30;;;;;;;0.24;74.20;100597.25;10513174;28;20048;-79
2022/12/29 00:10:27;;;;;;;3.90;2.47;;;;;;;0.23;74.58;100605.56;10524046;28;20055;-78
2022/12/29 00:15:39;;;;;;;4.57;2.80;;;;;;;0.17;74.29;100607.22;10515968;28;20044;-78
2022/12/29 00:36:45;;;;;;;5.72;2.83;;;;;;;0.27;74.16;100623.81;10492392;28;20052;-79
2022/12/29 00:47:09;;;;;;;5.05;2.70;;;;;;;0.33;73.51;100629.38;10511208;28;20045;-79
2022/12/29 00:52:12;;;;;;;3.90;1.83;;;;;;;0.24;73.25;100632.34;10514780;28;20049;-81
2022/12/29 00:57:15;;;;;;;2.30;1.55;;;;;;;0.19;73.39;100636.72;10529400;28;20032;-80
2022/12/29 01:02:17;;;;;;;3.72;2.10;;;;;;;0.21;73.19;100635.47;10478483;28;20527;-80
2022/12/29 01:07:19;;;;;;;4.07;1.52;;;;;;;0.23;73.36;100633.38;10511163;28;20056;-79
2022/12/29 01:12:40;;;;;;;3.97;1.75;;;;;;;0.19;73.20;100637.56;10529978;28;20060;-79
2022/12/29 01:17:43;;;;;;;3.55;1.50;;;;;;;0.25;73.40;100631.28;10512906;28;20499;-79
2022/12/29 01:22:47;;;;;;;2.90;1.67;;;;;;;0.33;73.51;100632.09;10529352;28;20052;-80
2022/12/29 01:27:49;;;;;;;3.33;1.60;;;;;;;0.26;73.64;100627.56;10508039;28;20505;-78
2022/12/29 01:32:51;;;;;;;2.47;1.50;;;;;;;0.29;74.07;100634.38;10504504;28;20045;-79
2022/12/29 01:37:54;;;;;;;1.92;1.25;;;;;;;0.05;74.05;100635.94;10509855;28;20044;-78
2022/12/29 01:42:57;;;;;;;1.88;1.30;;;;;;;-0.12;74.17;100634.75;10488501;28;20047;-79
2022/12/29 01:48:01;;;;;;;2.55;0.90;;;;;;;-0.05;74.77;100638.25;10513868;28;20388;-80
2022/12/29 01:53:08;;;;;;;2.08;1.15;;;;;;;-0.28;73.91;100643.28;10498064;28;20063;-79
2022/12/29 01:58:11;;;;;;;1.33;1.00;;;;;;;-0.42;74.58;100643.28;10485769;28;20048;-80
2022/12/29 02:03:15;;;;;;;3.22;1.08;;;;;;;-0.20;75.03;100643.88;10510027;28;20040;-79
2022/12/29 02:08:17;;;;;;;1.95;0.52;;;;;;;-0.23;74.81;100651.56;10503684;28;20036;-79
2022/12/29 02:13:19;;;;;;;1.40;0.60;;;;;;;-0.10;74.55;100646.16;10476173;28;20040;-79
2022/12/29 02:18:29;;;;;;;1.60;0.80;;;;;;;0.10;73.95;100644.22;10504039;28;20053;-79
2022/12/29 02:23:59;;;;;;;1.67;0.80;;;;;;;0.03;73.81;100646.13;10489724;28;20043;-79
2022/12/29 02:29:49;;;;;;;1.70;0.90;;;;;;;0.13;73.53;100651.88;10503942;28;20040;-79
2022/12/29 02:35:06;;;;;;;0.75;0.63;;;;;;;0.12;73.91;100644.81;10469806;28;20074;-78
2022/12/29 02:40:12;;;;;;;2.20;0.77;;;;;;;0.05;73.30;100654.81;10445771;28;20056;-79
2022/12/29 02:45:21;;;;;;;3.30;0.95;;;;;;;0.16;73.72;100646.06;10477780;28;20048;-79
2022/12/29 02:50:28;;;;;;;2.50;1.02;;;;;;;0.11;73.27;100648.56;10428736;28;20045;-79
2022/12/29 02:55:31;;;;;;;2.63;0.88;;;;;;;-0.02;72.89;100649.44;10441702;28;20049;-80
2022/12/29 03:00:37;;;;;;;2.70;1.05;;;;;;;0.02;72.88;100657.94;10437307;28;20048;-81
2022/12/29 03:06:13;;;;;;;5.13;1.35;;;;;;;0.03;73.50;100658.78;10460333;28;20049;-80
2022/12/29 03:16:44;;;;;;;1.85;1.13;;;;;;;-0.02;72.64;100660.22;10476508;28;20036;-81
2022/12/29 03:27:38;;;;;;;1.88;0.90;;;;;;;-0.11;72.19;100671.47;10464155;28;20045;-80
2022/12/29 03:32:47;;;;;;;2.78;1.35;;;;;;;-0.03;72.33;100663.13;10435449;28;20061;-80
2022/12/29 03:38:06;;;;;;;2.08;1.30;;;;;;;-0.27;72.66;100667.34;10428632;28;20311;-78
2022/12/29 03:43:08;;;;;;;;;;;;;;;-0.19;72.16;100660.88;10507654;28;20036;-80
2022/12/29 03:48:12;;;;;;;2.35;1.13;;;;;;;-0.07;72.32;100664.59;10486801;28;19920;-81
2022/12/29 03:53:16;;;;;;;3.78;1.13;;;;;;;0.01;72.30;100661.69;10453398;28;20037;-80
2022/12/29 03:58:19;;;;;;;2.25;0.90;;;;;;;-0.10;72.26;100656.94;10488939;28;20045;-77
2022/12/29 04:03:54;;;;;;;2.15;1.10;;;;;;;-0.12;72.78;100667.09;10501508;28;20039;-78
2022/12/29 04:08:57;;;;;;;3.42;1.40;;;;;;;0.03;72.37;100656.91;10488922;28;20040;-77
2022/12/29 04:13:59;;;;;;;4.65;1.10;;;;;;;0.06;71.97;100661.88;10466017;28;20043;-77
2022/12/29 04:19:03;;;;;;;2.80;1.45;;;;;;;-0.06;71.64;100659.00;10477383;28;20037;-78
2022/12/29 04:24:06;;;;;;;3.50;1.48;;;;;;;-0.24;71.37;100656.13;10477382;28;20060;-77
2022/12/29 04:29:17;;;;;;;3.45;1.13;;;;;;;-0.54;72.57;100665.69;10495142;28;20526;-77
2022/12/29 04:34:49;;;;;;;1.48;1.27;;;;;;;-0.47;72.35;100661.97;10476369;28;20503;-77
2022/12/29 04:39:51;;;;;;;1.58;1.23;;;;;;;-0.53;72.52;100656.56;10498214;28;20053;-77
2022/12/29 04:44:54;;;;;;;4.75;1.05;;;;;;;-0.71;72.74;100665.25;10504428;28;20043;-77
2022/12/29 04:50:25;;;;;;;2.85;1.45;;;;;;;-0.68;73.43;100665.72;10477101;28;20507;-78
2022/12/29 04:55:33;;;;;;;3.47;1.38;;;;;;;-0.73;73.40;100676.25;10491609;28;20041;-77
2022/12/29 05:00:36;;;;;;;2.45;1.40;;;;;;;-0.79;73.42;100671.69;10466706;28;20040;-77
2022/12/29 05:06:03;;;;;;;4.78;1.92;;;;;;;-0.93;73.65;100673.53;10511407;28;20036;-78
2022/12/29 05:11:05;;;;;;;2.30;1.38;;;;;;;-0.93;74.17;100678.09;10507926;28;20400;-77
2022/12/29 05:16:08;;;;;;;2.95;1.52;;;;;;;-1.12;75.11;100673.50;10503979;28;20059;-77
2022/12/29 05:21:11;;;;;;;3.53;1.80;;;;;;;-1.12;75.07;100679.72;10480107;28;20048;-79
2022/12/29 05:26:15;;;;;;;2.28;1.48;;;;;;;-1.18;75.17;100682.41;10487018;28;20056;-78
2022/12/29 05:31:40;;;;;;;2.67;1.35;;;;;;;-1.28;75.44;100680.09;10502637;28;20047;-78
2022/12/29 05:36:43;;;;;;;4.85;1.65;;;;;;;-1.43;75.86;100685.63;10518691;28;20050;-78
2022/12/29 05:41:47;;;;;;;3.42;1.30;;;;;;;-1.43;76.18;100682.13;10484953;28;20029;-79
2022/12/29 05:47:11;;;;;;;2.50;1.58;;;;;;;-1.47;76.87;100680.88;10484871;28;20057;-79
2022/12/29 05:52:44;;;;;;;3.03;1.52;;;;;;;-1.29;76.96;100683.81;10486975;28;20507;-77
2022/12/29 05:57:47;;;;;;;6.32;1.75;;;;;;;-1.25;76.73;100685.06;10494158;28;20051;-77
2022/12/29 06:02:51;;;;;;;3.63;1.77;;;;;;;-1.34;76.94;100692.50;10493215;28;20040;-78
2022/12/29 06:07:54;;;;;;;3.00;1.80;;;;;;;-1.48;77.90;100695.34;10482723;28;20491;-77
2022/12/29 06:12:56;;;;;;;3.72;1.75;;;;;;;-1.56;77.43;100699.88;10509825;28;20053;-76
2022/12/29 06:18:00;;;;;;;2.72;2.08;;;;;;;-1.38;77.23;100695.81;10507182;28;20487;-76
2022/12/29 06:23:02;;;;;;;4.47;2.03;;;;;;;-1.44;76.67;100692.06;10496896;28;20415;-78
2022/12/29 06:28:06;;;;;;;3.60;1.40;;;;;;;-1.29;77.13;100686.50;10504481;28;20408;-78
2022/12/29 06:33:09;;;;;;;3.38;1.58;;;;;;;-1.28;77.37;100696.25;10496828;28;20049;-78
2022/12/29 06:38:11;;;;;;;4.13;1.67;;;;;;;-1.44;77.56;100696.59;10502675;28;20049;-78
2022/12/29 06:43:13;;;;;;;3.17;1.70;;;;;;;-1.58;77.37;100696.53;10482540;28;20056;-79
2022/12/29 06:48:36;;;;;;;5.35;2.17;;;;;;;-1.65;78.08;100689.47;10511864;28;20426;-78
2022/12/29 06:53:38;;;;;;;1.00;0.90;;;;;;;-1.65;78.49;100694.88;10514560;28;20040;-78
2022/12/29 06:58:41;;;;;;;5.70;1.88;;;;;;;-1.69;78.34;100701.69;10497066;28;20044;-78
2022/12/29 07:03:44;;;;;;;3.58;1.90;;;;;;;-1.80;78.71;100702.22;10514794;28;20115;-78
2022/12/29 07:08:47;;;;;;;5.05;1.67;;;;;;;-1.86;78.84;100704.69;10516773;28;20036;-78
2022/12/29 07:13:50;;;;;;;2.65;1.67;;;;;;;-1.93;79.25;100694.91;10493231;28;20045;-78
2022/12/29 07:18:52;;;;;;;3.38;1.95;;;;;;;-1.94;79.31;100693.25;10521955;28;20094;-77
2022/12/29 07:23:54;;;;;;;6.18;2.10;;;;;;;-1.98;79.99;100716.19;10525662;28;20040;-78
2022/12/29 07:28:57;;;;;;;3.15;1.67;;;;;;;-1.96;80.40;100704.22;10525129;28;20402;-77
2022/12/29 07:33:59;;;;;;;2.40;1.45;;;;;;;-1.94;80.39;100712.06;10520673;28;20044;-78
2022/12/29 07:39:03;;;;;;;4.07;2.08;;;;;;;-1.75;79.92;100726.66;10502393;28;20055;-78
2022/12/29 07:44:05;;;;;;;2.95;1.48;;;;;;;-1.75;80.03;100737.44;10477869;28;20115;-77
2022/12/29 07:49:31;;;;;;;0.90;0.80;;;;;;;-1.82;80.73;100737.41;10502993;28;20053;-78
2022/12/29 07:54:33;;;;;;;1.38;0.93;;;;;;;-1.82;80.48;100746.28;10508918;28;20115;-77
2022/12/29 07:59:36;;;;;;;1.23;0.98;;;;;;;-1.86;80.70;100728.06;10486428;28;20036;-77
2022/12/29 08:04:38;;;;;;;2.70;1.42;;;;;;;-1.74;80.84;100721.09;10480310;28;20040;-77
2022/12/29 08:09:40;;;;;;;3.17;1.45;;;;;;;-1.70;80.92;100716.16;10467984;28;20064;-79
2022/12/29 08:14:43;;;;;;;2.50;1.63;;;;;;;-1.69;80.81;100715.13;10514632;28;20047;-79
2022/12/29 08:19:45;;;;;;;1.05;0.82;;;;;;;-1.66;81.12;100702.09;10489346;28;20131;-79
2022/12/29 08:24:48;;;;;;;1.33;1.10;;;;;;;-1.56;80.75;100707.13;10485035;28;20063;-80
2022/12/29 08:29:50;;;;;;;1.95;1.40;;;;;;;-1.23;80.41;100697.28;10477509;28;20506;-79
2022/12/29 08:34:53;;;;;;;3.58;1.38;;;;;;;-1.33;79.74;100702.25;10523940;28;20054;-78
2022/12/29 08:39:55;;;;;;;2.97;1.45;;;;;;;-1.48;80.13;100701.56;10526221;28;20049;-77
2022/12/29 08:45:01;;;;;;;3.25;1.23;;;;;;;-1.73;80.13;100690.50;10510873;28;20040;-78
2022/12/29 08:50:04;;;;;;;4.18;1.60;;;;;;;-1.87;80.40;100708.41;10498272;28;20182;-79
2022/12/29 08:55:06;;;;;;;3.78;1.77;;;;;;;-1.96;81.39;100706.06;10521241;28;20056;-76
2022/12/29 09:00:09;;;;;;;4.68;1.50;;;;;;;-2.02;81.51;100714.94;10485318;28;20087;-77
2022/12/29 09:05:12;;;;;;;2.78;1.45;;;;;;;-2.02;82.36;100720.31;10474476;28;20057;-76
2022/12/29 09:10:14;;;;;;;3.83;1.55;;;;;;;-1.97;82.73;100723.22;10504698;28;20076;-77
2022/12/29 09:15:17;;;;;;;4.22;2.15;;;;;;;-1.93;83.03;100719.94;10493722;28;20821;-78
2022/12/29 09:20:19;;;;;;;3.55;1.92;;;;;;;-1.85;82.73;100719.81;10521690;28;20041;-76
2022/12/29 09:25:24;;;;;;;5.53;2.13;;;;;;;-1.75;83.18;100726.66;10513686;28;20039;-78
2022/12/29 09:30:26;;;;;;;3.25;1.98;;;;;;;-1.77;83.08;100721.50;10521036;28;20052;-78
2022/12/29 09:35:28;;;;;;;6.00;2.22;;;;;;;-1.83;83.19;100723.13;10519167;28;20052;-77
2022/12/29 09:40:32;;;;;;;5.03;1.90;;;;;;;-1.85;83.26;100719.81;10524031;28;20051;-78
2022/12/29 09:45:43;;;;;;;4.30;2.38;;;;;;;-1.84;83.81;100723.31;10498550;28;20056;-78
2022/12/29 09:50:59;;;;;;;7.68;4.32;;;;;;;-1.89;83.98;100720.41;10492300;28;20533;-79
2022/12/29 09:56:02;;;;;;;4.70;2.50;;;;;;;-1.90;84.26;100724.13;10484434;28;20068;-77
2022/12/29 10:01:07;;;;;;;4.95;2.97;;;;;;;-1.92;84.88;100704.63;10503851;28;20542;-77
2022/12/29 10:06:16;;;;;;;1.85;1.38;;;;;;;-1.93;85.24;100708.38;10516455;28;20045;-77
2022/12/29 10:11:18;;;;;;;2.30;1.88;;;;;;;-1.95;85.03;100705.03;10482708;28;20143;-77
2022/12/29 10:16:34;;;;;;;8.75;4.03;;;;;;;-1.93;85.54;100703.81;10530844;28;20053;-77
2022/12/29 10:21:58;;;;;;;5.03;2.38;;;;;;;-2.00;86.15;100707.50;10530851;28;20047;-76
2022/12/29 10:27:00;;;;;;;5.57;3.17;;;;;;;-2.08;86.33;100715.72;10504632;28;20067;-76
2022/12/29 10:32:14;;;;;;;5.53;3.00;;;;;;;-2.17;86.58;100702.44;10472039;28;20447;-79
2022/12/29 10:37:39;;;;;;;5.97;3.17;;;;;;;-2.27;86.65;100704.63;10454692;28;20041;-77
2022/12/29 10:42:46;;;;;;;7.93;4.53;;;;;;;-2.38;87.48;100707.88;10516036;28;20076;-78
2022/12/29 10:48:02;;;;;;;8.32;4.20;;;;;;;-2.51;87.78;100694.31;10474318;28;20044;-77
2022/12/29 10:53:05;;;;;;;8.45;3.85;;;;;;;-2.57;88.24;100695.09;10488378;28;20048;-78
2022/12/29 10:58:12;;;;;;;2.22;1.63;;;;;;;-2.59;88.69;100699.84;10506746;28;20060;-76
2022/12/29 11:03:35;;;;;;;12.25;5.32;;;;;;;-2.65;89.27;100708.66;10508551;28;20043;-76
2022/12/29 11:08:40;;;;;;;7.28;4.43;;;;;;;-2.69;89.87;100702.00;10528693;28;20465;-78
2022/12/29 11:14:13;;;;;;;10.85;5.18;;;;;;;-2.80;90.13;100700.66;10529020;28;20048;-76
2022/12/29 11:19:21;;;;;;;10.48;5.57;;;;;;;-2.78;90.48;100704.00;10518261;28;20045;-77
2022/12/29 11:24:27;;;;;;;10.50;5.82;;;;;;;-2.82;90.48;100702.72;10488191;28;20060;-76
2022/12/29 11:29:37;;;;;;;5.32;2.78;;;;;;;-2.82;90.85;100719.66;10487699;28;20049;-78
2022/12/29 11:34:40;;;;;;;11.10;4.72;;;;;;;-2.84;91.48;100705.59;10494972;28;20119;-77
2022/12/29 11:39:57;;;;;;;8.10;3.88;;;;;;;-2.85;91.68;100698.56;10523673;28;20625;-78
2022/12/29 11:45:05;;;;;;;10.00;4.28;;;;;;;-2.82;91.53;100698.19;10474977;28;20127;-76
2022/12/29 11:50:08;;;;;;;3.35;1.70;;;;;;;-2.86;91.56;100696.91;10492065;28;20561;-76
2022/12/29 11:55:20;;;;;;;7.95;2.33;;;;;;;-2.95;91.62;100686.47;10505587;28;20045;-78
2022/12/29 12:00:27;;;;;;;3.03;1.95;;;;;;;-2.99;91.17;100695.94;10502909;28;20044;-78
2022/12/29 12:05:52;;;;;;;4.45;2.72;;;;;;;-3.12;91.95;100696.66;10505608;28;20033;-79
2022/12/29 12:11:22;;;;;;;5.13;1.77;;;;;;;-3.19;92.06;100698.44;10504945;28;20056;-78
2022/12/29 12:16:35;;;;;;;4.07;2.13;;;;;;;-3.34;91.89;100688.56;10466941;28;20060;-77
2022/12/29 12:21:43;;;;;;;7.60;3.83;;;;;;;-3.45;92.19;100681.03;10500600;28;20036;-77
2022/12/29 12:27:02;;;;;;;4.57;2.72;;;;;;;-3.54;92.68;100697.41;10523624;28;20470;-77
2022/12/29 12:32:19;;;;;;;2.03;1.52;;;;;;;-3.60;92.91;100688.28;10473601;28;20047;-78
2022/12/29 12:37:42;;;;;;;7.78;3.35;;;;;;;-3.66;93.30;100672.91;10500300;28;20045;-79
2022/12/29 12:43:03;;;;;;;1.48;1.38;;;;;;;-3.63;93.37;100683.28;10520625;28;20585;-77
2022/12/29 12:48:23;;;;;;;3.65;1.95;;;;;;;-3.64;93.74;100673.56;10523792;28;20452;-78
2022/12/29 12:53:34;;;;;;;6.72;3.00;;;;;;;-3.65;94.06;100672.72;10506942;28;20041;-77
2022/12/29 12:58:44;;;;;;;7.82;3.50;;;;;;;-3.63;94.23;100682.44;10521123;28;20045;-76
2022/12/29 13:04:23;;;;;;;6.80;3.22;;;;;;;-3.62;94.45;100666.19;10504280;28;20083;-75
2022/12/29 13:09:43;;;;;;;3.50;1.98;;;;;;;-3.65;94.56;100685.28;10522099;28;20056;-75
2022/12/29 13:14:52;;;;;;;5.57;2.70;;;;;;;-3.70;94.92;100672.47;10518161;28;20037;-78
2022/12/29 13:19:54;;;;;;;;;;;;;;;-3.69;95.35;100671.44;10502166;28;20505;-79
2022/12/29 13:25:02;;;;;;;4.78;2.92;;;;;;;-3.71;95.36;100681.53;10508026;28;19926;-78
2022/12/29 13:30:09;;;;;;;2.67;1.95;;;;;;;-3.68;95.58;100677.63;10505094;28;20044;-78
2022/12/29 13:35:54;;;;;;;4.73;3.10;;;;;;;-3.70;95.89;100674.31;10526953;28;20044;-78
2022/12/29 13:41:00;;;;;;;3.08;2.53;;;;;;;-3.67;95.50;100660.53;10508163;28;20045;-78
2022/12/29 13:46:12;;;;;;;6.32;3.42;;;;;;;-3.64;95.82;100670.91;10512022;28;20041;-78
2022/12/29 13:51:15;;;;;;;4.65;2.38;;;;;;;-3.70;95.99;100664.41;10508658;28;20040;-79
2022/12/29 13:56:24;;;;;;;3.20;2.03;;;;;;;-3.68;96.33;100653.50;10521393;28;20051;-78
2022/12/29 14:01:32;;;;;;;3.83;1.70;;;;;;;-3.68;96.55;100664.22;10526336;28;20404;-78
2022/12/29 14:06:40;;;;;;;2.92;0.98;;;;;;;-3.69;96.67;100651.84;10525803;28;20043;-78
2022/12/29 14:11:44;;;;;;;1.38;1.05;;;;;;;-3.73;96.44;100639.84;10528416;28;20036;-79
2022/12/29 14:16:47;;;;;;;2.83;1.65;;;;;;;-3.75;96.53;100641.88;10527884;28;20055;-77
2022/12/29 14:21:55;;;;;;;3.63;1.52;;;;;;;-3.77;96.74;100651.97;10509479;28;20040;-78
2022/12/29 14:26:57;;;;;;;;;;;;;;;-3.74;96.68;100651.56;10511091;28;20533;-78
2022/12/29 14:32:00;;;;;;;5.57;2.85;;;;;;;-3.69;97.09;100647.31;10497165;28;19983;-78
2022/12/29 14:37:03;;;;;;;3.75;1.90;;;;;;;-3.67;97.11;100641.75;10514360;28;20036;-78
2022/12/29 14:42:09;;;;;;;3.13;2.30;;;;;;;-3.65;96.92;100650.44;10505572;28;20525;-77
2022/12/29 14:47:18;;;;;;;5.55;2.88;;;;;;;-3.68;97.09;100642.78;10525099;28;20044;-78
2022/12/29 14:52:25;;;;;;;4.18;2.45;;;;;;;-3.67;97.06;100644.44;10508402;28;20042;-78
2022/12/29 14:57:34;;;;;;;4.20;2.53;;;;;;;-3.64;97.07;100630.69;10519945;28;20048;-78
2022/12/29 15:02:40;;;;;;;3.90;2.58;;;;;;;-3.56;97.12;100622.50;10509077;28;20036;-79
2022/12/29 15:07:42;;;;;;;1.90;0.80;;;;;;;-3.57;97.06;100622.69;10505053;28;20044;-78
2022/12/29 15:12:52;;;;;;;2.72;1.85;;;;;;;-3.58;96.57;100632.59;10506773;28;20036;-78
2022/12/29 15:17:54;;;;;;;4.95;2.00;;;;;;;-3.61;96.26;100624.94;10502190;28;20044;-78
2022/12/29 15:23:17;;;;;;;7.90;2.25;;;;;;;-3.61;96.18;100611.53;10523032;28;20060;-77
2022/12/29 15:28:20;;;;;;;5.78;2.13;;;;;;;-3.60;95.87;100615.03;10525173;28;20499;-79
2022/12/29 15:33:26;;;;;;;2.50;0.68;;;;;;;-3.61;95.81;100603.47;10502050;28;20052;-77
2022/12/29 15:38:30;;;;;;;4.95;1.83;;;;;;;-3.64;95.79;100601.19;10505855;28;20056;-78
2022/12/29 15:43:47;;;;;;;3.75;1.58;;;;;;;-3.67;95.47;100601.53;10484892;28;20028;-77
2022/12/29 15:48:49;;;;;;;2.50;1.55;;;;;;;-3.69;95.64;100609.75;10481354;28;20551;-78
2022/12/29 15:53:52;;;;;;;2.75;1.27;;;;;;;-3.75;95.35;100612.38;10492032;28;20055;-79
2022/12/29 15:58:54;;;;;;;1.90;1.48;;;;;;;-3.78;95.09;100592.16;10470931;28;20044;-78
2022/12/29 16:03:58;;;;;;;2.78;1.70;;;;;;;-3.86;95.35;100581.53;10499323;28;20120;-79
2022/12/29 16:09:02;;;;;;;1.95;1.02;;;;;;;-3.89;95.37;100581.06;10452082;28;20043;-78
2022/12/29 16:14:12;;;;;;;5.78;1.80;;;;;;;-3.91;95.65;100577.75;10468231;28;20041;-78
2022/12/29 16:19:32;;;;;;;1.90;1.00;;;;;;;-4.00;95.68;100580.53;10485868;28;20049;-79
2022/12/29 16:24:36;;;;;;;1.77;1.27;;;;;;;-4.01;95.70;100556.59;10468447;28;20045;-78
2022/12/29 16:29:39;;;;;;;1.10;0.88;;;;;;;-4.00;96.04;100559.09;10466578;28;20362;-79
2022/12/29 16:34:42;;;;;;;2.28;1.40;;;;;;;-4.04;96.06;100562.34;10467643;28;20049;-79
2022/12/29 16:39:45;;;;;;;6.43;2.60;;;;;;;-4.13;96.46;100561.63;10514622;28;20410;-78
2022/12/29 16:44:47;;;;;;;3.80;1.90;;;;;;;-4.18;96.45;100564.03;10506262;28;20048;-78
2022/12/29 16:49:52;;;;;;;5.05;2.10;;;;;;;-4.17;96.58;100579.06;10486245;28;20037;-78
2022/12/29 16:54:57;;;;;;;1.90;1.00;;;;;;;-4.20;96.98;100558.03;10504726;28;20045;-77
2022/12/29 17:00:02;;;;;;;3.78;1.98;;;;;;;-4.18;97.48;100581.94;10521823;28;20032;-78
2022/12/29 17:05:08;;;;;;;0.57;0.57;;;;;;;-4.22;97.85;100544.00;10524758;28;20506;-78
2022/12/29 17:10:12;;;;;;;1.17;0.85;;;;;;;-4.23;97.51;100550.38;10507064;28;20052;-77
2022/12/29 17:15:20;;;;;;;3.75;1.80;;;;;;;-4.25;97.92;100539.00;10531046;28;20073;-78
2022/12/29 17:20:26;;;;;;;3.80;2.08;;;;;;;-4.23;97.89;100539.66;10513008;28;20040;-78
2022/12/29 17:25:32;;;;;;;3.40;1.75;;;;;;;-4.21;97.90;100532.25;10487705;28;20512;-78
2022/12/29 17:30:35;;;;;;;3.60;1.88;;;;;;;-4.17;98.49;100530.03;10498627;28;20036;-77
2022/12/29 17:35:37;;;;;;;1.02;0.70;;;;;;;-4.15;98.68;100528.00;10510716;28;20522;-77
2022/12/29 17:40:39;;;;;;;5.20;2.55;;;;;;;-4.11;98.59;100531.97;10517218;28;20043;-78
2022/12/29 17:45:43;;;;;;;2.53;1.75;;;;;;;-4.09;98.67;100520.03;10509074;28;20048;-80
2022/12/29 17:50:47;;;;;;;3.13;2.00;;;;;;;-4.09;99.11;100516.53;10468790;28;20053;-79
2022/12/29 17:55:49;;;;;;;4.35;3.13;;;;;;;-4.09;99.18;100509.31;10494020;28;20048;-78
2022/12/29 18:00:53;;;;;;;4.32;2.53;;;;;;;-4.08;99.17;100491.38;10518726;28;20063;-77
2022/12/29 18:05:56;;;;;;;7.25;2.75;;;;;;;-4.07;99.72;100519.84;10494363;28;20033;-79
2022/12/29 18:10:58;;;;;;;9.90;4.95;;;;;;;-4.05;99.59;100518.63;10524530;28;20044;-78
2022/12/29 18:16:00;;;;;;;8.50;4.45;;;;;;;-4.04;100.00;100490.81;10494873;28;20040;-86
2022/12/29 18:21:02;;;;;;;8.82;5.00;;;;;;;-4.03;99.83;100500.50;10516010;28;20142;-78
2022/12/29 18:26:17;;;;;;;8.50;4.63;;;;;;;-3.98;100.00;100508.00;10518546;28;20052;-75
2022/12/29 18:31:21;;;;;;;7.30;4.38;;;;;;;-3.92;100.00;100477.75;10517798;28;20501;-75
2022/12/29 18:36:24;;;;;;;9.27;4.50;;;;;;;-3.89;100.00;100465.81;10524060;28;20071;-75
2022/12/29 18:41:28;;;;;;;8.70;4.30;;;;;;;-3.87;100.00;100450.38;10508679;28;20090;-76
2022/12/29 18:46:30;;;;;;;8.55;4.40;;;;;;;-3.84;100.00;100449.97;10520427;28;20049;-75
2022/12/29 18:51:33;;;;;;;8.13;4.50;;;;;;;-3.80;100.00;100440.56;10513010;28;20049;-77
2022/12/29 18:56:35;;;;;;;9.00;4.38;;;;;;;-3.78;100.00;100435.81;10504337;28;20051;-77
2022/12/29 19:01:42;;;;;;;6.72;4.07;;;;;;;-3.77;100.00;100442.84;10505348;28;20033;-80
2022/12/29 19:06:45;;;;;;;12.20;4.97;;;;;;;-3.74;100.00;100447.81;10513422;28;20041;-79
2022/12/29 19:11:51;;;;;;;6.22;4.53;;;;;;;-3.68;100.00;100436.31;10511537;28;20040;-82
2022/12/29 19:16:53;;;;;;;8.02;4.35;;;;;;;-3.63;100.00;100425.03;10524694;28;20044;-78
2022/12/29 19:21:56;;;;;;;7.55;5.28;;;;;;;-3.65;100.00;100441.28;10494174;28;20048;-79
2022/12/29 19:26:59;;;;;;;8.50;4.90;;;;;;;-3.66;100.00;100407.44;10525928;28;20048;-80
2022/12/29 19:32:01;;;;;;;8.20;4.93;;;;;;;-3.63;100.00;100404.41;10527071;28;20055;-81
2022/12/29 19:37:04;;;;;;;6.80;3.88;;;;;;;-3.65;100.00;100388.47;10518619;28;20044;-78
2022/12/29 19:42:31;;;;;;;6.60;4.18;;;;;;;-3.65;100.00;100384.97;10488470;28;20403;-79
2022/12/29 19:47:34;;;;;;;7.00;4.32;;;;;;;-3.65;100.00;100395.69;10482397;28;20040;-78
2022/12/29 19:52:40;;;;;;;5.57;3.45;;;;;;;-3.67;100.00;100378.97;10480842;28;20045;-80
2022/12/29 19:57:43;;;;;;;4.43;3.10;;;;;;;-3.67;100.00;100387.03;10478501;28;20049;-79
2022/12/29 20:02:46;;;;;;;4.60;2.97;;;;;;;-3.70;100.00;100382.06;10486522;28;20068;-78
2022/12/29 20:07:53;;;;;;;3.88;3.15;;;;;;;-3.72;100.00;100379.56;10461415;28;20048;-80
2022/12/29 20:12:55;;;;;;;4.63;3.13;;;;;;;-3.73;100.00;100371.72;10481281;28;20048;-78
2022/12/29 20:18:01;;;;;;;6.22;2.97;;;;;;;-3.74;100.00;100362.84;10472966;28;20079;-74
2022/12/29 20:24:19;;;;;;;4.25;2.55;;;;;;;-3.71;100.00;100364.31;10481534;28;20052;-76
2022/12/29 20:29:22;;;;;;;3.78;2.42;;;;;;;-3.74;100.00;100362.84;10467099;28;20503;-76
2022/12/29 20:34:24;;;;;;;4.32;3.28;;;;;;;-3.74;100.00;100353.97;10466935;28;20044;-76
2022/12/29 20:39:27;;;;;;;4.93;3.08;;;;;;;-3.76;100.00;100346.13;10512417;28;20045;-77
2022/12/29 20:44:31;;;;;;;5.22;3.65;;;;;;;-3.75;100.00;100345.09;10528277;28;20047;-78
2022/12/29 20:49:34;;;;;;;4.80;3.20;;;;;;;-3.78;100.00;100339.31;10516028;28;20067;-77
2022/12/29 20:54:36;;;;;;;5.70;3.55;;;;;;;-3.79;100.00;100345.69;10514495;28;20045;-77
2022/12/29 20:59:38;;;;;;;4.40;3.20;;;;;;;-3.77;100.00;100338.28;10533989;28;20053;-77
2022/12/29 21:04:41;;;;;;;4.72;3.00;;;;;;;-3.77;100.00;100331.06;10531709;28;20033;-77
2022/12/29 21:09:43;;;;;;;5.70;3.30;;;;;;;-3.66;100.00;100327.84;10514444;28;20040;-76
2022/12/29 21:14:46;;;;;;;5.35;3.22;;;;;;;-3.66;100.00;100306.38;10511582;28;20052;-76
2022/12/29 21:19:48;;;;;;;7.10;3.33;;;;;;;-3.74;100.00;100316.44;10513266;28;20418;-77
2022/12/29 21:24:50;;;;;;;5.57;3.60;;;;;;;-3.69;100.00;100314.00;10536220;28;20044;-77
2022/12/29 21:29:52;;;;;;;4.35;2.15;;;;;;;-3.71;100.00;100292.75;10490892;28;20040;-77
2022/12/29 21:34:55;;;;;;;5.18;2.58;;;;;;;-3.72;100.00;100276.84;10545381;28;20048;-77
2022/12/29 21:39:57;;;;;;;6.60;3.10;;;;;;;-3.75;100.00;100280.78;10530052;28;20569;-77
2022/12/29 21:50:20;;;;;;;8.18;3.10;;;;;;;-3.66;100.00;100266.16;10520002;28;20082;-78
2022/12/29 21:55:22;;;;;;;3.70;2.70;;;;;;;-3.69;100.00;100252.34;10521552;28;20044;-77
2022/12/29 22:16:29;;;;;;;3.47;2.47;;;;;;;-3.66;100.00;100249.25;10503295;28;20040;-75
2022/12/29 22:21:31;;;;;;;4.20;2.05;;;;;;;-3.78;100.00;100234.78;10530017;28;20410;-75
2022/12/29 22:26:33;;;;;;;2.83;2.03;;;;;;;-3.87;99.81;100238.63;10508644;28;20135;-77
2022/12/29 22:31:35;;;;;;;3.22;2.00;;;;;;;-3.87;99.89;100219.84;10525386;28;20399;-77
2022/12/29 22:36:38;;;;;;;3.45;2.38;;;;;;;-3.90;99.63;100217.56;10478883;28;1181343;-77
2022/12/29 22:41:40;;;;;;;3.47;2.40;;;;;;;-3.89;99.76;100243.34;10528711;28;20044;-77
2022/12/29 22:46:42;;;;;;;5.10;2.58;;;;;;;-3.85;99.43;100215.13;10524123;28;20053;-77
2022/12/29 22:51:44;;;;;;;3.78;2.25;;;;;;;-3.87;99.66;100199.25;10517435;28;20057;-77
2022/12/29 22:56:47;;;;;;;3.47;2.47;;;;;;;-3.91;99.04;100187.25;10507373;28;20051;-80
2022/12/29 23:01:49;;;;;;;3.53;2.55;;;;;;;-3.95;98.96;100169.94;10519176;28;20040;-78
2022/12/29 23:06:51;;;;;;;3.97;2.85;;;;;;;-3.95;98.92;100165.41;10519117;28;20404;-79
2022/12/29 23:11:53;;;;;;;4.95;2.53;;;;;;;-3.95;98.70;100165.41;10511403;28;20044;-78
2022/12/29 23:16:56;;;;;;;3.60;2.40;;;;;;;-3.91;97.94;100148.91;10523260;28;20522;-78
2022/12/29 23:21:58;;;;;;;3.20;2.00;;;;;;;-3.93;98.17;100162.53;10496568;28;20044;-77
2022/12/29 23:27:01;;;;;;;3.92;2.10;;;;;;;-3.87;97.50;100134.09;10527073;28;20060;-77
2022/12/29 23:32:03;;;;;;;3.90;1.95;;;;;;;-3.86;97.32;100130.38;10514009;28;20423;-77
2022/12/29 23:37:05;;;;;;;3.47;1.85;;;;;;;-3.74;97.08;100137.66;10522967;28;20388;-79
2022/12/29 23:42:11;;;;;;;3.38;2.00;;;;;;;-3.76;96.90;100126.31;10502135;28;20041;-78
2022/12/29 23:47:17;;;;;;;2.88;1.92;;;;;;;-3.70;96.37;100112.09;10518149;28;20053;-79
2022/12/29 23:52:20;;;;;;;2.85;1.92;;;;;;;-3.70;96.03;100109.41;10515091;28;20067;-78
2022/12/29 23:57:22;;;;;;;3.50;2.30;;;;;;;-3.70;95.60;100119.31;10496525;28;20048;-78
